Terminal Aerodrome Forecast
Issued by NWS Cleveland, OH

Home | Current Version | Previous Version | Text Only | Print | Product List | Glossary On
Versions: 1 2 3 4 5 6 7 8 9 10 11 12 13
311
FTUS41 KCLE 250533
TAFMFD
TAF
KMFD 250533Z 2506/2606 11004KT 3SM BR VCSH SCT006 OVC020
      TEMPO 2506/2510 1SM BR OVC006
     FM251000 35003KT 1 1/2SM BR OVC006
      TEMPO 2510/2514 3/4SM BR OVC006
     FM251400 33008KT 4SM BR OVC010
     FM251800 35012KT 5SM BR OVC015
     FM252000 35012KT P6SM OVC020
     FM260000 36010KT P6SM BKN050
     FM260300 36007KT 5SM BR BKN050=

USA.gov is the U.S. government's official web portal to all federal, state and local government web resources and services.